createdAt,value
2023-04-25T00:02:33.006Z,8.60
2023-04-25T00:05:07.138Z,8.60
2023-04-25T00:07:39.970Z,8.60
2023-04-25T00:10:13.945Z,8.50
2023-04-25T00:12:46.635Z,8.50
2023-04-25T00:15:19.739Z,8.50
2023-04-25T00:17:53.962Z,8.50
2023-04-25T00:20:26.234Z,8.50
2023-04-25T00:22:58.376Z,8.50
2023-04-25T00:25:30.754Z,8.50
2023-04-25T00:28:03.009Z,8.50
2023-04-25T00:30:35.207Z,8.50
2023-04-25T00:33:07.841Z,8.40
2023-04-25T00:35:39.905Z,8.50
2023-04-25T00:38:11.941Z,8.40
2023-04-25T00:40:44.764Z,8.40
2023-04-25T00:43:16.960Z,8.40
2023-04-25T00:45:51.014Z,8.50
2023-04-25T00:48:23.949Z,8.50
2023-04-25T00:51:00.300Z,8.50
2023-04-25T00:53:33.407Z,8.50
2023-04-25T00:56:05.653Z,8.50
2023-04-25T00:58:39.281Z,8.50
2023-04-25T01:01:13.681Z,8.50
2023-04-25T01:03:47.878Z,8.50
2023-04-25T01:06:23.337Z,8.50
2023-04-25T01:08:55.531Z,8.50
2023-04-25T01:11:27.962Z,8.40
2023-04-25T01:14:00.218Z,8.40
2023-04-25T01:16:34.262Z,8.40
2023-04-25T01:19:14.026Z,8.40
2023-04-25T01:21:48.425Z,8.40
2023-04-25T01:24:20.638Z,8.40
2023-04-25T01:26:52.821Z,8.40
2023-04-25T01:29:26.968Z,8.40
2023-04-25T01:32:01.074Z,8.40
2023-04-25T01:34:34.970Z,8.40
2023-04-25T01:37:07.203Z,8.30
2023-04-25T01:39:39.796Z,8.30
2023-04-25T01:42:15.964Z,8.30
2023-04-25T01:44:48.149Z,8.30
2023-04-25T01:47:20.243Z,8.30
2023-04-25T01:49:52.573Z,8.30
2023-04-25T01:52:24.734Z,8.30
2023-04-25T01:54:58.615Z,8.30
2023-04-25T01:57:32.556Z,8.30
2023-04-25T02:00:10.789Z,8.30
2023-04-25T02:02:43.594Z,8.30
2023-04-25T02:05:15.868Z,8.30
2023-04-25T02:07:49.466Z,8.30
2023-04-25T02:10:21.544Z,8.30
2023-04-25T02:12:53.817Z,8.30
2023-04-25T02:15:26.293Z,8.30
2023-04-25T02:17:59.079Z,8.30
2023-04-25T02:20:32.486Z,8.30
2023-04-25T02:23:05.056Z,8.30
2023-04-25T02:25:37.206Z,8.30
2023-04-25T02:28:09.405Z,8.30
2023-04-25T02:30:42.395Z,8.30
2023-04-25T02:33:14.422Z,8.20
2023-04-25T02:35:48.934Z,8.20
2023-04-25T02:38:21.061Z,8.20
2023-04-25T02:40:53.124Z,8.10
2023-04-25T02:43:25.134Z,8.10
2023-04-25T02:45:57.267Z,8.10
2023-04-25T02:48:33.129Z,8.10
2023-04-25T02:51:05.233Z,8.00
2023-04-25T02:53:37.340Z,8.00
2023-04-25T02:56:09.503Z,8.00
2023-04-25T02:58:41.776Z,7.90
2023-04-25T03:01:13.788Z,7.90
2023-04-25T03:03:45.818Z,7.90
2023-04-25T03:06:18.176Z,7.90
2023-04-25T03:08:50.325Z,7.90
2023-04-25T03:11:22.541Z,7.90
2023-04-25T03:13:56.806Z,7.90
2023-04-25T03:16:28.949Z,7.90
2023-04-25T03:19:01.562Z,8.00
2023-04-25T03:21:35.839Z,8.00
2023-04-25T03:24:08.006Z,8.00
2023-04-25T03:26:40.437Z,8.00
2023-04-25T03:29:12.743Z,8.00
2023-04-25T03:31:44.972Z,7.90
2023-04-25T03:34:17.278Z,7.90
2023-04-25T03:36:49.337Z,7.90
2023-04-25T03:39:21.383Z,7.90
2023-04-25T03:41:53.475Z,7.90
2023-04-25T03:44:25.806Z,7.90
2023-04-25T03:46:57.983Z,7.90
2023-04-25T03:49:30.085Z,7.90
2023-04-25T03:52:03.106Z,7.90
2023-04-25T03:54:35.133Z,7.90
2023-04-25T03:57:07.289Z,7.90
2023-04-25T03:59:39.372Z,7.90
2023-04-25T04:02:11.696Z,7.90
2023-04-25T04:04:45.436Z,7.90
2023-04-25T04:07:18.100Z,7.90
2023-04-25T04:09:50.151Z,7.80
2023-04-25T04:12:22.144Z,7.80
2023-04-25T04:15:11.076Z,7.80
2023-04-25T04:17:43.841Z,7.80
2023-04-25T04:20:16.353Z,7.80
2023-04-25T04:22:48.470Z,7.80
2023-04-25T04:25:20.416Z,7.80
2023-04-25T04:27:55.652Z,7.70
2023-04-25T04:30:37.248Z,7.70
2023-04-25T04:33:10.181Z,7.70
2023-04-25T04:36:00.385Z,7.80
2023-04-25T04:38:34.334Z,7.80
2023-04-25T04:41:07.129Z,7.80
2023-04-25T04:43:40.580Z,7.80
2023-04-25T04:46:14.001Z,7.80
2023-04-25T04:48:47.270Z,7.80
2023-04-25T04:51:19.485Z,7.80
2023-04-25T04:53:52.928Z,7.80
2023-04-25T04:56:27.499Z,7.80
2023-04-25T04:59:00.957Z,7.80
2023-04-25T05:01:40.591Z,7.80
2023-04-25T05:04:12.766Z,7.80
2023-04-25T05:06:48.180Z,7.90
2023-04-25T05:09:26.690Z,7.90
2023-04-25T05:11:58.926Z,7.90
2023-04-25T05:14:31.513Z,7.90
2023-04-25T05:17:05.809Z,7.90
2023-04-25T05:19:40.459Z,7.90
2023-04-25T05:22:12.705Z,8.00
2023-04-25T05:24:44.975Z,8.00
2023-04-25T05:27:36.836Z,8.10
2023-04-25T05:30:10.084Z,8.10
2023-04-25T05:32:42.480Z,8.20
2023-04-25T05:35:14.519Z,8.30
2023-04-25T05:37:46.692Z,8.20
2023-04-25T05:40:19.156Z,8.20
2023-04-25T05:42:51.372Z,8.20
2023-04-25T05:45:23.425Z,8.10
2023-04-25T05:47:57.598Z,8.10
2023-04-25T05:50:29.778Z,8.00
2023-04-25T05:53:01.917Z,8.00
2023-04-25T05:55:36.462Z,8.10
2023-04-25T05:58:08.469Z,7.90
2023-04-25T06:00:42.707Z,7.90
2023-04-25T06:03:20.435Z,8.00
2023-04-25T06:05:53.171Z,8.00
2023-04-25T06:08:25.402Z,8.00
2023-04-25T06:10:57.569Z,8.10
2023-04-25T06:13:29.972Z,8.10
2023-04-25T06:16:02.221Z,8.10
2023-04-25T06:18:34.519Z,8.10
2023-04-25T06:21:06.642Z,8.10
2023-04-25T06:23:38.797Z,8.20
2023-04-25T06:26:10.844Z,8.20
2023-04-25T06:28:44.023Z,8.30
2023-04-25T06:31:16.244Z,8.40
2023-04-25T06:33:49.625Z,8.50
2023-04-25T06:36:28.668Z,8.70
2023-04-25T06:39:00.758Z,8.80
2023-04-25T06:41:34.875Z,8.90
2023-04-25T06:44:07.309Z,9.00
2023-04-25T06:46:40.272Z,9.20
2023-04-25T06:49:12.340Z,9.20
2023-04-25T06:51:44.318Z,9.20
2023-04-25T06:54:16.500Z,9.20
2023-04-25T06:56:49.886Z,9.20
2023-04-25T06:59:22.099Z,9.20
2023-04-25T07:01:54.405Z,9.20
2023-04-25T07:04:26.986Z,9.20
2023-04-25T07:06:59.522Z,9.10
2023-04-25T07:09:35.040Z,9.20
2023-04-25T07:12:09.602Z,9.10
2023-04-25T07:14:41.784Z,9.00
2023-04-25T07:17:14.121Z,9.00
2023-04-25T07:19:48.186Z,9.10
2023-04-25T07:22:20.348Z,9.00
2023-04-25T07:24:54.291Z,9.00
2023-04-25T07:27:26.881Z,9.00
2023-04-25T07:29:59.252Z,9.00
2023-04-25T07:32:31.431Z,8.90
2023-04-25T07:35:04.527Z,8.90
2023-04-25T07:37:37.321Z,8.90
2023-04-25T07:40:10.660Z,8.90
2023-04-25T07:42:43.176Z,8.90
2023-04-25T07:45:15.290Z,8.90
2023-04-25T07:47:47.670Z,8.80
2023-04-25T07:50:19.744Z,8.80
2023-04-25T07:52:51.743Z,8.80
2023-04-25T07:55:23.880Z,8.80
2023-04-25T07:57:56.077Z,8.70
2023-04-25T08:00:30.068Z,8.70
2023-04-25T08:03:02.307Z,8.70
2023-04-25T08:05:34.997Z,8.80
2023-04-25T08:08:08.594Z,8.80
2023-04-25T08:10:41.367Z,8.80
2023-04-25T08:13:14.171Z,8.80
2023-04-25T08:15:46.662Z,8.80
2023-04-25T08:18:19.164Z,8.90
2023-04-25T08:20:52.571Z,8.80
2023-04-25T08:23:24.715Z,8.80
2023-04-25T08:25:56.955Z,8.80
2023-04-25T08:28:29.503Z,8.70
2023-04-25T08:31:02.264Z,8.70
2023-04-25T08:33:34.796Z,8.70
2023-04-25T08:36:07.513Z,8.70
2023-04-25T08:38:39.661Z,8.70
2023-04-25T08:41:14.195Z,8.70
2023-04-25T08:43:49.525Z,8.70
2023-04-25T08:46:24.235Z,8.70
2023-04-25T08:49:03.727Z,8.70
2023-04-25T08:51:40.207Z,8.80
2023-04-25T08:54:33.521Z,8.70
2023-04-25T08:57:09.251Z,8.70
2023-04-25T08:59:46.668Z,8.70
2023-04-25T09:02:21.755Z,8.70
2023-04-25T09:04:56.005Z,8.60
2023-04-25T09:07:29.636Z,8.50
2023-04-25T09:10:04.417Z,8.50
2023-04-25T09:12:38.024Z,8.50
2023-04-25T09:15:13.119Z,8.50
2023-04-25T09:17:58.864Z,8.40
2023-04-25T09:20:35.178Z,8.40
2023-04-25T09:23:15.664Z,8.50
2023-04-25T09:25:55.280Z,8.50
2023-04-25T09:28:30.728Z,8.50
2023-04-25T09:31:03.644Z,8.50
2023-04-25T09:33:36.969Z,8.50
2023-04-25T09:36:12.418Z,8.50
2023-04-25T09:38:47.976Z,8.40
2023-04-25T09:41:29.855Z,8.50
2023-04-25T09:44:02.946Z,8.50
2023-04-25T09:46:37.834Z,8.50
2023-04-25T09:49:10.596Z,8.50
2023-04-25T09:51:42.895Z,8.50
2023-04-25T09:54:26.968Z,8.40
2023-04-25T09:57:09.157Z,8.40
2023-04-25T09:59:48.312Z,8.20
2023-04-25T10:02:26.982Z,8.10
2023-04-25T10:05:02.249Z,8.00
2023-04-25T10:07:39.406Z,7.80
2023-04-25T10:10:14.197Z,7.70
2023-04-25T10:12:46.912Z,7.60
2023-04-25T10:15:20.556Z,7.60
2023-04-25T10:17:54.491Z,7.50
2023-04-25T10:20:28.278Z,7.50
2023-04-25T10:23:14.105Z,7.40
2023-04-25T10:25:48.152Z,7.40
2023-04-25T10:28:22.252Z,7.30
2023-04-25T10:31:08.361Z,7.30
2023-04-25T10:33:45.068Z,7.30
2023-04-25T10:36:24.596Z,7.30
2023-04-25T10:39:08.892Z,7.30
2023-04-25T10:41:51.426Z,7.30
2023-04-25T10:44:37.929Z,7.30
2023-04-25T10:47:11.267Z,7.30
2023-04-25T10:49:44.326Z,7.30
2023-04-25T10:52:27.627Z,7.30
2023-04-25T10:55:04.660Z,7.30
2023-04-25T10:57:45.110Z,7.30
2023-04-25T11:00:25.901Z,7.40
2023-04-25T11:03:07.824Z,7.50
2023-04-25T11:05:55.093Z,7.50
2023-04-25T11:08:51.874Z,7.60
2023-04-25T11:11:25.437Z,7.60
2023-04-25T11:13:58.642Z,7.70
2023-04-25T11:16:32.282Z,7.70
2023-04-25T11:19:05.131Z,7.70
2023-04-25T11:21:38.082Z,7.80
2023-04-25T11:24:11.077Z,7.80
2023-04-25T11:26:44.744Z,7.80
2023-04-25T11:29:18.525Z,7.90
2023-04-25T11:31:57.299Z,7.90
2023-04-25T11:34:34.286Z,7.90
2023-04-25T11:37:07.589Z,7.90
2023-04-25T11:39:40.237Z,8.00
2023-04-25T11:42:16.566Z,8.00
2023-04-25T11:44:49.395Z,8.00
2023-04-25T11:47:28.215Z,8.00
2023-04-25T11:50:04.393Z,8.00
2023-04-25T11:52:43.942Z,8.00
2023-04-25T11:55:19.706Z,8.00
2023-04-25T11:57:52.370Z,8.10
2023-04-25T12:00:25.601Z,8.10
2023-04-25T12:03:21.727Z,8.20
2023-04-25T12:06:05.170Z,8.20
2023-04-25T12:08:38.687Z,8.30
2023-04-25T12:11:33.175Z,8.20
2023-04-25T12:14:21.690Z,8.20
2023-04-25T12:17:01.335Z,8.20
2023-04-25T12:19:37.892Z,8.10
2023-04-25T12:22:26.028Z,8.10
2023-04-25T12:24:59.745Z,8.00
2023-04-25T12:27:33.001Z,8.00
2023-04-25T12:30:17.161Z,8.00
2023-04-25T12:32:49.552Z,8.00
2023-04-25T12:35:21.995Z,8.20
2023-04-25T12:37:54.167Z,8.40
2023-04-25T12:40:27.116Z,8.60
2023-04-25T12:42:59.516Z,8.80
2023-04-25T12:45:31.824Z,9.00
2023-04-25T12:48:04.467Z,9.20
2023-04-25T12:50:36.767Z,9.40
2023-04-25T12:53:09.341Z,9.60
2023-04-25T12:55:42.527Z,9.80
2023-04-25T12:58:16.899Z,9.90
2023-04-25T13:00:50.766Z,10.00
2023-04-25T13:03:23.734Z,9.90
2023-04-25T13:05:56.948Z,9.80
2023-04-25T13:08:29.574Z,9.70
2023-04-25T13:11:02.112Z,9.70
2023-04-25T13:13:36.119Z,9.80
2023-04-25T13:16:08.687Z,10.00
2023-04-25T13:18:41.592Z,10.40
2023-04-25T13:21:14.064Z,10.50
2023-04-25T13:23:47.973Z,10.60
2023-04-25T13:26:20.876Z,10.50
2023-04-25T13:28:53.042Z,10.50
2023-04-25T13:31:25.822Z,10.40
2023-04-25T13:33:58.205Z,10.30
2023-04-25T13:36:30.513Z,10.20
2023-04-25T13:39:05.508Z,10.10
2023-04-25T13:41:37.938Z,10.10
2023-04-25T13:44:10.395Z,10.10
2023-04-25T13:46:46.854Z,10.20
2023-04-25T13:49:20.200Z,10.20
2023-04-25T13:51:52.486Z,10.20
2023-04-25T13:54:24.757Z,10.20
2023-04-25T13:57:00.214Z,10.20
2023-04-25T13:59:33.958Z,10.20
2023-04-25T14:02:06.354Z,10.30
2023-04-25T14:04:39.347Z,10.30
2023-04-25T14:07:12.556Z,10.40
2023-04-25T14:09:45.583Z,10.40
2023-04-25T14:12:18.038Z,10.60
2023-04-25T14:14:50.411Z,10.80
2023-04-25T14:17:33.738Z,11.10
2023-04-25T14:20:11.883Z,11.40
2023-04-25T14:22:45.703Z,11.50
2023-04-25T14:25:23.355Z,11.50
2023-04-25T14:28:07.514Z,11.50
2023-04-25T14:30:39.921Z,11.40
2023-04-25T14:33:12.880Z,11.30
2023-04-25T14:35:46.874Z,11.20
2023-04-25T14:38:24.114Z,11.20
2023-04-25T14:40:57.622Z,11.10
2023-04-25T14:43:29.854Z,11.10
2023-04-25T14:46:03.445Z,11.20
2023-04-25T14:48:36.416Z,11.20
2023-04-25T14:51:11.860Z,11.30
2023-04-25T14:53:44.087Z,11.30
2023-04-25T14:56:16.703Z,11.30
2023-04-25T14:58:48.861Z,11.30
2023-04-25T15:01:21.990Z,11.30
2023-04-25T15:03:54.599Z,11.20
2023-04-25T15:06:29.802Z,11.00
2023-04-25T15:09:02.491Z,11.10
2023-04-25T15:11:35.085Z,11.20
2023-04-25T15:14:07.536Z,11.20
2023-04-25T15:16:39.978Z,11.40
2023-04-25T15:19:12.846Z,11.60
2023-04-25T15:21:49.076Z,11.80
2023-04-25T15:24:22.578Z,11.90
2023-04-25T15:26:55.288Z,12.00
2023-04-25T15:29:28.253Z,12.00
2023-04-25T15:32:01.347Z,11.80
2023-04-25T15:34:35.299Z,11.70
2023-04-25T15:37:09.171Z,11.70
2023-04-25T15:39:42.058Z,11.70
2023-04-25T15:42:15.877Z,11.70
2023-04-25T15:44:48.346Z,11.60
2023-04-25T15:47:21.215Z,11.50
2023-04-25T15:49:53.765Z,11.40
2023-04-25T15:52:26.709Z,11.40
2023-04-25T15:54:59.303Z,11.40
2023-04-25T15:57:36.752Z,11.40
2023-04-25T16:00:17.830Z,11.40
2023-04-25T16:02:51.064Z,11.40
2023-04-25T16:05:24.172Z,11.40
2023-04-25T16:07:57.172Z,11.30
2023-04-25T16:10:30.134Z,11.20
2023-04-25T16:13:04.193Z,11.10
2023-04-25T16:15:40.356Z,11.00
2023-04-25T16:18:13.116Z,11.00
2023-04-25T16:20:45.830Z,10.90
2023-04-25T16:23:18.794Z,10.80
2023-04-25T16:25:51.504Z,10.80
2023-04-25T16:28:24.735Z,10.80
2023-04-25T16:30:57.121Z,10.90
2023-04-25T16:33:29.917Z,10.80
2023-04-25T16:36:03.894Z,10.80
2023-04-25T16:38:40.388Z,10.80
2023-04-25T16:41:13.621Z,10.70
2023-04-25T16:43:46.946Z,10.70
2023-04-25T16:46:20.587Z,10.60
2023-04-25T16:49:30.163Z,10.60
2023-04-25T16:52:06.449Z,10.50
2023-04-25T16:54:38.804Z,10.50
2023-04-25T16:57:11.822Z,10.40
2023-04-25T16:59:44.804Z,10.30
2023-04-25T17:02:17.845Z,10.30
2023-04-25T17:04:50.313Z,10.20
2023-04-25T17:07:24.717Z,10.20
2023-04-25T17:09:59.725Z,10.10
2023-04-25T17:12:34.020Z,10.10
2023-04-25T17:15:07.305Z,10.00
2023-04-25T17:17:41.133Z,10.00
2023-04-25T17:20:16.727Z,9.90
2023-04-25T17:22:50.135Z,9.90
2023-04-25T17:25:25.338Z,9.80
2023-04-25T17:27:58.072Z,9.80
2023-04-25T17:31:23.867Z,9.70
2023-04-25T17:33:58.026Z,9.60
2023-04-25T17:36:31.361Z,9.50
2023-04-25T17:39:12.747Z,9.40
2023-04-25T17:41:49.471Z,9.30
2023-04-25T17:44:21.825Z,9.10
2023-04-25T17:46:57.987Z,9.00
2023-04-25T17:49:33.728Z,8.80
2023-04-25T17:52:09.670Z,8.70
2023-04-25T17:54:42.358Z,8.60
2023-04-25T17:57:14.774Z,8.50
2023-04-25T17:59:48.688Z,8.50
2023-04-25T18:02:22.208Z,8.40
2023-04-25T18:04:55.937Z,8.40
2023-04-25T18:07:31.727Z,8.40
2023-04-25T18:10:08.532Z,8.30
2023-04-25T18:12:43.226Z,8.30
2023-04-25T18:15:15.983Z,8.20
2023-04-25T18:21:55.935Z,8.10
2023-04-25T18:24:51.090Z,8.10
2023-04-25T18:27:24.258Z,8.00
2023-04-25T18:29:57.153Z,8.00
2023-04-25T18:32:31.287Z,7.90
2023-04-25T18:35:05.125Z,7.90
2023-04-25T18:37:41.631Z,7.90
2023-04-25T18:40:16.682Z,7.80
2023-04-25T18:42:49.632Z,7.80
2023-04-25T18:45:22.472Z,7.80
2023-04-25T18:47:55.859Z,7.80
2023-04-25T18:50:29.500Z,7.80
2023-04-25T18:53:05.146Z,7.80
2023-04-25T18:55:38.708Z,7.70
2023-04-25T18:58:13.877Z,7.70
2023-04-25T19:00:56.900Z,7.70
2023-04-25T19:03:32.513Z,7.70
2023-04-25T19:06:06.695Z,7.70
2023-04-25T19:08:40.811Z,7.70
2023-04-25T19:11:20.933Z,7.70
2023-04-25T19:13:57.946Z,7.70
2023-04-25T19:16:39.380Z,7.70
2023-04-25T19:23:27.125Z,7.70
2023-04-25T19:26:04.067Z,7.70
2023-04-25T19:28:39.503Z,7.70
2023-04-25T19:31:14.575Z,7.70
2023-04-25T19:33:47.954Z,7.70
2023-04-25T19:36:24.842Z,7.60
2023-04-25T19:39:05.583Z,7.60
2023-04-25T19:41:40.818Z,7.60
2023-04-25T19:44:13.993Z,7.60
2023-04-25T19:46:49.616Z,7.60
2023-04-25T19:49:25.186Z,7.60
2023-04-25T19:51:59.063Z,7.60
2023-04-25T19:54:33.044Z,7.60
2023-04-25T19:57:07.199Z,7.60
2023-04-25T19:59:41.060Z,7.60
2023-04-25T20:02:18.741Z,7.60
2023-04-25T20:04:53.504Z,7.60
2023-04-25T20:07:26.991Z,7.60
2023-04-25T20:10:04.327Z,7.60
2023-04-25T20:12:42.570Z,7.60
2023-04-25T20:15:18.555Z,7.60
2023-04-25T20:17:51.480Z,7.60
2023-04-25T20:20:24.545Z,7.60
2023-04-25T20:22:57.330Z,7.60
2023-04-25T20:25:30.777Z,7.60
2023-04-25T20:28:03.854Z,7.50
2023-04-25T20:30:36.707Z,7.50
2023-04-25T20:33:11.844Z,7.50
2023-04-25T20:35:46.395Z,7.40
2023-04-25T20:38:20.165Z,7.50
2023-04-25T20:40:55.956Z,7.50
2023-04-25T20:43:30.507Z,7.40
2023-04-25T20:46:04.472Z,7.40
2023-04-25T20:48:37.626Z,7.40
2023-04-25T20:51:10.568Z,7.40
2023-04-25T20:53:43.353Z,7.40
2023-04-25T20:56:17.091Z,7.40
2023-04-25T20:58:53.539Z,7.40
2023-04-25T21:01:28.131Z,7.40
2023-04-25T21:04:01.154Z,7.40
2023-04-25T21:06:34.776Z,7.40
2023-04-25T21:09:07.912Z,7.40
2023-04-25T21:11:41.590Z,7.40
2023-04-25T21:14:14.297Z,7.40
2023-04-25T21:16:47.897Z,7.30
2023-04-25T21:19:20.428Z,7.30
2023-04-25T21:21:53.257Z,7.30
2023-04-25T21:24:27.560Z,7.30
2023-04-25T21:27:02.279Z,7.30
2023-04-25T21:29:35.441Z,7.30
2023-04-25T21:32:09.066Z,7.30
2023-04-25T21:34:43.303Z,7.30
2023-04-25T21:37:15.963Z,7.30
2023-04-25T21:39:48.335Z,7.30
2023-04-25T21:42:21.302Z,7.30
2023-04-25T21:44:53.632Z,7.30
2023-04-25T21:47:26.341Z,7.30
2023-04-25T21:49:59.391Z,7.20
2023-04-25T21:52:32.333Z,7.20
2023-04-25T21:55:06.536Z,7.20
2023-04-25T21:57:39.977Z,7.20
2023-04-25T22:00:24.968Z,7.20
2023-04-25T22:03:00.085Z,7.20
2023-04-25T22:05:34.129Z,7.20
2023-04-25T22:08:07.527Z,7.10
2023-04-25T22:10:40.456Z,7.10
2023-04-25T22:13:13.400Z,7.10
2023-04-25T22:15:46.866Z,7.10
2023-04-25T22:18:19.809Z,7.10
2023-04-25T22:20:53.335Z,7.10
2023-04-25T22:23:25.666Z,7.10
2023-04-25T22:25:57.861Z,7.10
2023-04-25T22:28:30.448Z,7.10
2023-04-25T22:31:02.802Z,7.10
2023-04-25T22:33:35.936Z,7.00
2023-04-25T22:36:09.019Z,7.10
2023-04-25T22:38:41.732Z,7.10
2023-04-25T22:41:15.005Z,7.00
2023-04-25T22:43:47.356Z,7.10
2023-04-25T22:46:21.007Z,7.00
2023-04-25T22:48:54.137Z,7.00
2023-04-25T22:51:26.706Z,7.10
2023-04-25T22:54:00.683Z,7.10
2023-04-25T22:56:33.102Z,7.00
2023-04-25T22:59:06.399Z,7.00
2023-04-25T23:01:41.035Z,7.00
2023-04-25T23:04:13.517Z,7.00
2023-04-25T23:06:47.347Z,7.00
2023-04-25T23:09:19.880Z,7.00
2023-04-25T23:11:53.383Z,7.00
2023-04-25T23:14:25.517Z,7.00
2023-04-25T23:16:57.646Z,7.00
2023-04-25T23:19:30.648Z,7.00
2023-04-25T23:22:02.893Z,6.90
2023-04-25T23:24:40.646Z,6.90
2023-04-25T23:27:12.869Z,6.90
2023-04-25T23:29:44.975Z,6.90
2023-04-25T23:32:22.898Z,6.90
2023-04-25T23:34:57.644Z,6.90
2023-04-25T23:37:31.241Z,6.90
2023-04-25T23:40:08.579Z,6.90
2023-04-25T23:42:42.260Z,6.80
2023-04-25T23:45:16.505Z,6.80
2023-04-25T23:47:49.088Z,6.80
2023-04-25T23:50:21.261Z,6.80
2023-04-25T23:52:54.034Z,6.70
2023-04-25T23:55:26.479Z,6.70
2023-04-25T23:57:58.788Z,6.70
